createdAt,value
2019-01-18T00:00:09.673Z,99.90
2019-01-18T00:01:24.559Z,99.90
2019-01-18T00:02:32.998Z,99.90
2019-01-18T00:03:38.767Z,99.90
2019-01-18T00:04:45.706Z,99.90
2019-01-18T00:05:51.193Z,99.90
2019-01-18T00:06:56.624Z,99.90
2019-01-18T00:08:03.215Z,99.90
2019-01-18T00:09:09.193Z,99.90
2019-01-18T00:10:15.010Z,99.90
2019-01-18T00:11:20.297Z,99.90
2019-01-18T00:12:25.715Z,99.90
2019-01-18T00:13:31.012Z,99.90
2019-01-18T00:14:36.381Z,99.90
2019-01-18T00:15:41.685Z,99.90
2019-01-18T00:16:46.965Z,99.90
2019-01-18T00:17:52.284Z,99.90
2019-01-18T00:18:57.579Z,99.90
2019-01-18T00:20:02.880Z,99.90
2019-01-18T00:21:08.296Z,99.90
2019-01-18T00:22:13.597Z,99.90
2019-01-18T00:23:18.932Z,99.90
2019-01-18T00:24:24.233Z,99.90
2019-01-18T00:25:29.623Z,99.90
2019-01-18T00:26:34.970Z,99.90
2019-01-18T00:27:40.237Z,99.90
2019-01-18T00:28:45.531Z,99.90
2019-01-18T00:29:50.832Z,99.90
2019-01-18T00:30:56.100Z,99.90
2019-01-18T00:32:01.464Z,99.90
2019-01-18T00:33:07.040Z,99.90
2019-01-18T00:34:12.377Z,99.90
2019-01-18T00:35:19.662Z,99.90
2019-01-18T00:36:24.934Z,99.90
2019-01-18T00:37:30.197Z,99.90
2019-01-18T00:38:35.500Z,99.90
2019-01-18T00:39:40.776Z,99.90
2019-01-18T00:40:46.290Z,99.90
2019-01-18T00:41:51.539Z,99.90
2019-01-18T00:42:56.846Z,99.90
2019-01-18T00:44:02.139Z,99.90
2019-01-18T00:45:09.492Z,99.90
2019-01-18T00:46:14.712Z,99.90
2019-01-18T00:47:20.003Z,99.90
2019-01-18T00:48:25.266Z,99.90
2019-01-18T00:49:30.693Z,99.90
2019-01-18T00:50:35.977Z,99.90
2019-01-18T00:51:41.320Z,99.90
2019-01-18T00:52:46.860Z,99.90
2019-01-18T00:53:52.192Z,99.90
2019-01-18T00:54:57.668Z,99.90
2019-01-18T00:56:02.939Z,99.90
2019-01-18T00:57:08.283Z,99.90
2019-01-18T00:58:13.572Z,99.90
2019-01-18T00:59:18.899Z,99.90
2019-01-18T01:00:26.464Z,99.90
2019-01-18T01:01:31.871Z,99.90
2019-01-18T01:02:37.187Z,99.90
2019-01-18T01:03:42.585Z,99.90
2019-01-18T01:04:47.885Z,99.90
2019-01-18T01:05:53.158Z,99.90
2019-01-18T01:06:58.445Z,99.90
2019-01-18T01:08:03.741Z,99.90
2019-01-18T01:09:09.156Z,99.90
2019-01-18T01:10:14.547Z,99.90
2019-01-18T01:11:20.248Z,99.90
2019-01-18T01:12:25.612Z,99.90
2019-01-18T01:13:30.932Z,99.90
2019-01-18T01:14:36.284Z,99.90
2019-01-18T01:15:41.564Z,99.90
2019-01-18T01:16:46.887Z,99.90
2019-01-18T01:17:52.185Z,99.90
2019-01-18T01:18:57.479Z,99.90
2019-01-18T01:20:02.784Z,99.90
2019-01-18T01:21:08.180Z,99.90
2019-01-18T01:22:13.612Z,99.90
2019-01-18T01:23:18.904Z,99.90
2019-01-18T01:24:24.212Z,99.90
2019-01-18T01:25:29.604Z,99.90
2019-01-18T01:26:35.138Z,99.90
2019-01-18T01:27:40.860Z,99.90
2019-01-18T01:28:46.182Z,99.90
2019-01-18T01:29:51.469Z,99.90
2019-01-18T01:30:56.782Z,99.90
2019-01-18T01:32:02.071Z,99.90
2019-01-18T01:33:07.444Z,99.90
2019-01-18T01:34:12.730Z,99.90
2019-01-18T01:35:18.198Z,99.90
2019-01-18T01:36:23.468Z,99.90
2019-01-18T01:37:28.725Z,99.90
2019-01-18T01:38:34.012Z,99.90
2019-01-18T01:39:39.323Z,99.90
2019-01-18T01:40:44.689Z,99.90
2019-01-18T01:41:49.952Z,99.90
2019-01-18T01:42:55.282Z,99.90
2019-01-18T01:44:00.608Z,99.90
2019-01-18T01:45:06.379Z,99.90
2019-01-18T01:46:11.734Z,99.90
2019-01-18T01:47:17.071Z,99.90
2019-01-18T01:48:22.286Z,99.90
2019-01-18T01:49:27.582Z,99.90
2019-01-18T01:50:32.843Z,99.90
2019-01-18T01:51:38.127Z,99.90
2019-01-18T01:52:43.410Z,99.90
2019-01-18T01:53:48.711Z,99.90
2019-01-18T01:54:53.976Z,99.90
2019-01-18T01:55:59.263Z,99.90
2019-01-18T01:57:05.653Z,99.90
2019-01-18T01:58:10.959Z,99.90
2019-01-18T01:59:16.229Z,99.90
2019-01-18T02:00:24.614Z,99.90
2019-01-18T02:01:30.879Z,99.90
2019-01-18T02:02:36.167Z,99.90
2019-01-18T02:03:41.444Z,99.90
2019-01-18T02:04:46.732Z,99.90
2019-01-18T02:05:52.025Z,99.90
2019-01-18T02:06:57.305Z,99.90
2019-01-18T02:08:02.580Z,99.90
2019-01-18T02:09:08.068Z,99.90
2019-01-18T02:10:14.325Z,99.90
2019-01-18T02:11:19.680Z,99.90
2019-01-18T02:12:24.974Z,99.90
2019-01-18T02:13:30.757Z,99.90
2019-01-18T02:14:36.014Z,99.90
2019-01-18T02:15:41.279Z,99.90
2019-01-18T02:16:46.563Z,99.90
2019-01-18T02:17:51.944Z,99.90
2019-01-18T02:18:57.203Z,99.90
2019-01-18T02:20:02.504Z,99.90
2019-01-18T02:21:07.796Z,99.90
2019-01-18T02:22:14.161Z,99.90
2019-01-18T02:23:19.479Z,99.90
2019-01-18T02:24:24.735Z,99.90
2019-01-18T02:25:29.883Z,99.90
2019-01-18T02:26:35.064Z,99.90
2019-01-18T02:27:40.629Z,99.90
2019-01-18T02:28:45.805Z,99.90
2019-01-18T02:29:56.617Z,99.90
2019-01-18T02:30:57.897Z,99.90
2019-01-18T02:32:03.172Z,99.90
2019-01-18T02:33:08.462Z,99.90
2019-01-18T02:34:13.743Z,99.90
2019-01-18T02:35:19.023Z,99.90
2019-01-18T02:36:24.165Z,99.90
2019-01-18T02:37:29.352Z,99.90
2019-01-18T02:38:34.635Z,99.90
2019-01-18T02:39:39.788Z,99.90
2019-01-18T02:40:45.058Z,99.90
2019-01-18T02:41:50.296Z,99.90
2019-01-18T02:42:55.561Z,99.90
2019-01-18T02:44:00.725Z,99.90
2019-01-18T02:45:07.922Z,99.90
2019-01-18T02:46:13.195Z,99.90
2019-01-18T02:47:18.515Z,99.90
2019-01-18T02:48:23.686Z,99.90
2019-01-18T02:49:34.028Z,99.90
2019-01-18T02:50:39.346Z,99.90
2019-01-18T02:51:44.862Z,99.90
2019-01-18T02:52:50.065Z,99.90
2019-01-18T02:53:55.319Z,99.90
2019-01-18T02:55:00.515Z,99.90
2019-01-18T02:56:06.078Z,99.90
2019-01-18T02:57:11.440Z,99.90
2019-01-18T02:58:16.656Z,99.90
2019-01-18T02:59:21.951Z,99.90
2019-01-18T03:00:27.102Z,99.90
2019-01-18T03:01:32.393Z,99.90
2019-01-18T03:02:37.637Z,99.90
2019-01-18T03:03:42.976Z,99.90
2019-01-18T03:04:48.326Z,99.90
2019-01-18T03:05:53.564Z,99.90
2019-01-18T03:06:58.888Z,99.90
2019-01-18T03:08:04.219Z,99.90
2019-01-18T03:09:10.607Z,99.90
2019-01-18T03:10:24.204Z,99.90
2019-01-18T03:11:29.364Z,99.90
2019-01-18T03:12:34.579Z,99.90
2019-01-18T03:13:39.752Z,99.90
2019-01-18T03:14:45.063Z,99.90
2019-01-18T03:15:50.285Z,99.90
2019-01-18T03:16:55.494Z,99.90
2019-01-18T03:18:00.733Z,99.90
2019-01-18T03:19:06.343Z,99.90
2019-01-18T03:20:12.850Z,99.90
2019-01-18T03:21:18.100Z,99.90
2019-01-18T03:22:23.271Z,99.90
2019-01-18T03:23:28.580Z,99.90
2019-01-18T03:24:33.744Z,99.90
2019-01-18T03:25:39.010Z,99.90
2019-01-18T03:26:44.248Z,99.90
2019-01-18T03:27:49.419Z,99.90
2019-01-18T03:28:54.601Z,99.90
2019-01-18T03:29:59.827Z,99.90
2019-01-18T03:31:05.095Z,99.90
2019-01-18T03:32:10.423Z,99.90
2019-01-18T03:33:15.781Z,99.90
2019-01-18T03:34:21.048Z,99.90
2019-01-18T03:35:26.401Z,99.90
2019-01-18T03:36:31.637Z,99.90
2019-01-18T03:37:36.821Z,99.90
2019-01-18T03:38:42.031Z,99.90
2019-01-18T03:39:47.280Z,99.90
2019-01-18T03:40:53.124Z,99.90
2019-01-18T03:41:58.475Z,99.90
2019-01-18T03:43:03.639Z,99.90
2019-01-18T03:44:09.046Z,99.90
2019-01-18T03:45:16.128Z,99.90
2019-01-18T03:46:21.420Z,99.90
2019-01-18T03:47:26.792Z,99.90
2019-01-18T03:48:32.136Z,99.90
2019-01-18T03:49:37.481Z,99.90
2019-01-18T03:50:42.746Z,99.90
2019-01-18T03:51:47.974Z,99.90
2019-01-18T03:52:53.250Z,99.90
2019-01-18T03:53:58.558Z,99.90
2019-01-18T03:55:03.983Z,99.90
2019-01-18T03:56:09.456Z,99.90
2019-01-18T03:57:14.698Z,99.90
2019-01-18T03:58:19.975Z,99.90
2019-01-18T03:59:25.164Z,99.90
2019-01-18T04:00:31.036Z,99.90
2019-01-18T04:01:36.225Z,99.90
2019-01-18T04:02:41.493Z,99.90
2019-01-18T04:03:46.785Z,99.90
2019-01-18T04:04:52.060Z,99.90
2019-01-18T04:05:57.344Z,99.90
2019-01-18T04:07:02.520Z,99.90
2019-01-18T04:08:07.795Z,99.90
2019-01-18T04:09:13.439Z,99.90
2019-01-18T04:10:19.534Z,99.90
2019-01-18T04:11:24.688Z,99.90
2019-01-18T04:12:29.863Z,99.90
2019-01-18T04:13:35.021Z,99.90
2019-01-18T04:14:40.285Z,99.90
2019-01-18T04:15:45.545Z,99.90
2019-01-18T04:16:51.742Z,99.90
2019-01-18T04:17:56.836Z,99.90
2019-01-18T04:19:01.993Z,99.90
2019-01-18T04:20:08.601Z,99.90
2019-01-18T04:21:14.106Z,99.90
2019-01-18T04:22:19.360Z,99.90
2019-01-18T04:23:24.520Z,99.90
2019-01-18T04:24:29.713Z,99.90
2019-01-18T04:25:35.137Z,99.90
2019-01-18T04:26:40.396Z,99.90
2019-01-18T04:27:45.676Z,99.90
2019-01-18T04:28:51.083Z,99.90
2019-01-18T04:29:56.345Z,99.90
2019-01-18T04:31:01.616Z,99.90
2019-01-18T04:32:06.758Z,99.90
2019-01-18T04:33:11.902Z,99.90
2019-01-18T04:34:17.171Z,99.90
2019-01-18T04:35:22.442Z,99.90
2019-01-18T04:36:27.710Z,99.90
2019-01-18T04:37:32.862Z,99.90
2019-01-18T04:38:38.071Z,99.90
2019-01-18T04:39:43.348Z,99.90
2019-01-18T04:40:48.658Z,99.90
2019-01-18T04:41:53.838Z,99.90
2019-01-18T04:42:59.113Z,99.90
2019-01-18T04:44:04.624Z,99.90
2019-01-18T04:45:10.017Z,99.90
2019-01-18T04:46:15.678Z,99.90
2019-01-18T04:47:20.976Z,99.90
2019-01-18T04:48:26.211Z,99.90
2019-01-18T04:49:31.368Z,99.90
2019-01-18T04:50:36.595Z,99.90
2019-01-18T04:51:41.837Z,99.90
2019-01-18T04:52:47.106Z,99.90
2019-01-18T04:53:52.247Z,99.90
2019-01-18T04:54:57.457Z,99.90
2019-01-18T04:56:02.700Z,99.90
2019-01-18T04:57:07.985Z,99.90
2019-01-18T04:58:13.230Z,99.90
2019-01-18T04:59:18.446Z,99.90
2019-01-18T05:00:25.548Z,99.90
2019-01-18T05:01:30.728Z,99.90
2019-01-18T05:02:35.935Z,99.90
2019-01-18T05:03:41.085Z,99.90
2019-01-18T05:04:46.445Z,99.90
2019-01-18T05:05:51.646Z,99.90
2019-01-18T05:06:56.878Z,99.90
2019-01-18T05:08:02.143Z,99.90
2019-01-18T05:09:08.136Z,99.90
2019-01-18T05:10:17.794Z,99.90
2019-01-18T05:11:23.050Z,99.90
2019-01-18T05:12:28.337Z,99.90
2019-01-18T05:13:33.602Z,99.90
2019-01-18T05:14:38.801Z,99.90
2019-01-18T05:15:44.019Z,99.90
2019-01-18T05:16:49.326Z,99.90
2019-01-18T05:17:54.545Z,99.90
2019-01-18T05:18:59.809Z,99.90
2019-01-18T05:20:05.730Z,99.90
2019-01-18T05:21:11.081Z,99.90
2019-01-18T05:22:16.352Z,99.90
2019-01-18T05:23:21.641Z,99.90
2019-01-18T05:24:27.066Z,99.90
2019-01-18T05:25:32.235Z,99.90
2019-01-18T05:26:37.525Z,99.90
2019-01-18T05:27:42.774Z,99.90
2019-01-18T05:28:47.998Z,99.90
2019-01-18T05:29:53.226Z,99.90
2019-01-18T05:30:58.498Z,99.90
2019-01-18T05:32:03.832Z,99.90
2019-01-18T05:33:09.065Z,99.90
2019-01-18T05:34:14.310Z,99.90
2019-01-18T05:35:20.864Z,99.90
2019-01-18T05:36:26.281Z,99.90
2019-01-18T05:37:31.660Z,99.90
2019-01-18T05:38:36.860Z,99.90
2019-01-18T05:39:42.130Z,99.90
2019-01-18T05:40:47.576Z,99.90
2019-01-18T05:41:52.873Z,99.90
2019-01-18T05:42:58.128Z,99.90
2019-01-18T05:44:03.417Z,99.90
2019-01-18T05:45:10.595Z,99.90
2019-01-18T05:46:15.864Z,99.90
2019-01-18T05:47:21.411Z,99.90
2019-01-18T05:48:26.617Z,99.90
2019-01-18T05:49:31.850Z,99.90
2019-01-18T05:50:37.046Z,99.90
2019-01-18T05:51:42.261Z,99.90
2019-01-18T05:52:47.788Z,99.90
2019-01-18T05:53:53.094Z,99.90
2019-01-18T05:54:58.328Z,99.90
2019-01-18T05:56:03.542Z,99.90
2019-01-18T05:57:08.812Z,99.90
2019-01-18T05:58:14.061Z,99.90
2019-01-18T05:59:22.352Z,99.90
2019-01-18T06:00:38.174Z,99.90
2019-01-18T06:01:43.492Z,99.90
2019-01-18T06:02:48.756Z,99.90
2019-01-18T06:03:54.136Z,99.90
2019-01-18T06:04:59.834Z,99.90
2019-01-18T06:06:05.638Z,99.90
2019-01-18T06:07:10.998Z,99.90
2019-01-18T06:08:16.342Z,99.90
2019-01-18T06:09:21.775Z,99.90
2019-01-18T06:10:27.092Z,99.90
2019-01-18T06:11:32.411Z,99.90
2019-01-18T06:12:37.715Z,99.90
2019-01-18T06:13:42.986Z,99.90
2019-01-18T06:14:48.271Z,99.90
2019-01-18T06:15:53.491Z,99.90
2019-01-18T06:16:58.730Z,99.90
2019-01-18T06:18:03.985Z,99.90
2019-01-18T06:19:09.136Z,99.90
2019-01-18T06:20:15.803Z,99.90
2019-01-18T06:21:21.611Z,99.90
2019-01-18T06:22:26.941Z,99.90
2019-01-18T06:23:32.138Z,99.90
2019-01-18T06:24:38.408Z,99.90
2019-01-18T06:25:43.601Z,99.90
2019-01-18T06:26:48.918Z,99.90
2019-01-18T06:27:54.169Z,99.90
2019-01-18T06:28:59.409Z,99.90
2019-01-18T06:30:07.304Z,99.90
2019-01-18T06:31:12.612Z,99.90
2019-01-18T06:32:17.892Z,99.90
2019-01-18T06:33:23.192Z,99.90
2019-01-18T06:34:28.500Z,99.90
2019-01-18T06:35:33.838Z,99.90
2019-01-18T06:36:39.116Z,99.90
2019-01-18T06:37:44.522Z,99.90
2019-01-18T06:38:50.847Z,99.90
2019-01-18T06:39:56.030Z,99.90
2019-01-18T06:41:13.558Z,99.90
2019-01-18T06:42:18.747Z,99.90
2019-01-18T06:43:24.074Z,99.90
2019-01-18T06:44:29.225Z,99.90
2019-01-18T06:45:35.301Z,99.90
2019-01-18T06:46:40.493Z,99.90
2019-01-18T06:47:45.696Z,99.90
2019-01-18T06:48:52.138Z,99.90
2019-01-18T06:49:57.392Z,99.90
2019-01-18T06:51:02.658Z,99.90
2019-01-18T06:52:07.803Z,99.90
2019-01-18T06:53:12.895Z,99.90
2019-01-18T06:54:18.195Z,99.90
2019-01-18T06:55:25.006Z,99.90
2019-01-18T06:56:30.273Z,99.90
2019-01-18T06:57:35.522Z,99.90
2019-01-18T06:58:40.854Z,99.90
2019-01-18T06:59:46.192Z,99.90
2019-01-18T07:00:51.500Z,99.90
2019-01-18T07:01:56.770Z,99.90
2019-01-18T07:03:02.286Z,99.90
2019-01-18T07:04:07.536Z,99.90
2019-01-18T07:05:12.928Z,99.90
2019-01-18T07:06:18.187Z,99.90
2019-01-18T07:07:23.493Z,99.90
2019-01-18T07:08:28.766Z,99.90
2019-01-18T07:09:34.131Z,99.90
2019-01-18T07:10:39.461Z,99.90
2019-01-18T07:11:44.737Z,99.90
2019-01-18T07:12:49.992Z,99.90
2019-01-18T07:13:55.404Z,99.90
2019-01-18T07:15:00.686Z,99.90
2019-01-18T07:16:05.963Z,99.90
2019-01-18T07:17:11.245Z,99.90
2019-01-18T07:18:16.408Z,99.90
2019-01-18T07:19:21.777Z,99.90
2019-01-18T07:20:27.147Z,99.90
2019-01-18T07:21:33.514Z,99.90
2019-01-18T07:22:40.939Z,99.90
2019-01-18T07:23:46.229Z,99.90
2019-01-18T07:24:51.512Z,99.90
2019-01-18T07:25:56.809Z,99.90
2019-01-18T07:27:02.170Z,99.90
2019-01-18T07:28:07.477Z,99.90
2019-01-18T07:29:12.786Z,99.90
2019-01-18T07:30:20.727Z,99.90
2019-01-18T07:31:26.136Z,99.90
2019-01-18T07:32:31.505Z,99.90
2019-01-18T07:33:36.878Z,99.90
2019-01-18T07:34:42.249Z,99.90
2019-01-18T07:35:47.645Z,99.90
2019-01-18T07:36:52.918Z,99.90
2019-01-18T07:37:58.259Z,99.90
2019-01-18T07:39:05.291Z,99.90
2019-01-18T07:40:10.912Z,99.90
2019-01-18T07:41:16.154Z,99.90
2019-01-18T07:42:21.377Z,99.90
2019-01-18T07:43:26.752Z,99.90
2019-01-18T07:44:32.091Z,99.90
2019-01-18T07:45:37.432Z,99.90
2019-01-18T07:46:42.643Z,99.90
2019-01-18T07:47:47.872Z,99.90
2019-01-18T07:48:53.376Z,99.90
2019-01-18T07:49:58.631Z,99.90
2019-01-18T07:51:03.885Z,99.90
2019-01-18T07:52:09.205Z,99.90
2019-01-18T07:53:14.401Z,99.90
2019-01-18T07:54:19.806Z,99.90
2019-01-18T07:55:26.384Z,99.90
2019-01-18T07:56:31.775Z,99.90
2019-01-18T07:57:39.406Z,99.90
2019-01-18T07:58:44.745Z,99.90
2019-01-18T07:59:50.068Z,99.90
2019-01-18T08:00:55.317Z,99.90
2019-01-18T08:02:00.590Z,99.90
2019-01-18T08:03:05.958Z,99.90
2019-01-18T08:04:11.251Z,99.90
2019-01-18T08:05:16.625Z,99.90
2019-01-18T08:06:22.018Z,99.90
2019-01-18T08:07:27.291Z,99.90
2019-01-18T08:08:32.673Z,99.90
2019-01-18T08:09:37.967Z,99.90
2019-01-18T08:10:43.260Z,99.90
2019-01-18T08:11:48.439Z,99.90
2019-01-18T08:12:53.971Z,99.90
2019-01-18T08:13:59.277Z,99.90
2019-01-18T08:15:05.536Z,99.90
2019-01-18T08:16:10.779Z,99.90
2019-01-18T08:17:15.950Z,99.90
2019-01-18T08:18:21.241Z,99.90
2019-01-18T08:19:26.682Z,99.90
2019-01-18T08:20:32.458Z,99.90
2019-01-18T08:21:37.778Z,99.90
2019-01-18T08:22:43.366Z,99.90
2019-01-18T08:23:48.646Z,99.90
2019-01-18T08:24:53.932Z,99.90
2019-01-18T08:25:59.212Z,99.90
2019-01-18T08:27:04.490Z,99.90
2019-01-18T08:28:10.015Z,99.90
2019-01-18T08:29:15.264Z,99.90
2019-01-18T08:30:22.588Z,99.90
2019-01-18T08:31:29.035Z,99.90
2019-01-18T08:32:34.512Z,99.90
2019-01-18T08:33:39.984Z,99.90
2019-01-18T08:34:45.256Z,99.90
2019-01-18T08:35:51.703Z,99.90
2019-01-18T08:36:56.906Z,99.90
2019-01-18T08:38:02.224Z,99.90
2019-01-18T08:39:09.060Z,99.90
2019-01-18T08:40:16.833Z,99.90
2019-01-18T08:41:22.183Z,99.90
2019-01-18T08:42:27.324Z,99.90
2019-01-18T08:43:33.014Z,99.90
2019-01-18T08:44:38.327Z,99.90
2019-01-18T08:45:57.734Z,99.90
2019-01-18T08:47:03.031Z,99.90
2019-01-18T08:48:08.857Z,99.90
2019-01-18T08:49:14.157Z,99.90
2019-01-18T08:50:22.869Z,99.90
2019-01-18T08:51:28.174Z,99.90
2019-01-18T08:52:41.521Z,99.90
2019-01-18T08:54:19.929Z,99.90
2019-01-18T08:55:58.849Z,99.90
2019-01-18T09:02:27.365Z,99.90
2019-01-18T09:03:32.689Z,99.90
2019-01-18T09:04:40.492Z,99.90
2019-01-18T09:05:45.757Z,99.90
2019-01-18T09:06:50.914Z,99.90
2019-01-18T09:07:56.092Z,99.90
2019-01-18T09:09:01.311Z,99.90
2019-01-18T09:10:10.572Z,99.90
2019-01-18T09:11:16.482Z,99.90
2019-01-18T09:12:21.652Z,99.90
2019-01-18T09:13:26.966Z,99.90
2019-01-18T09:14:32.273Z,99.90
2019-01-18T09:15:37.632Z,99.90
2019-01-18T09:16:42.752Z,99.90
2019-01-18T09:17:47.887Z,99.90
2019-01-18T09:18:53.447Z,99.90
2019-01-18T09:19:58.693Z,99.90
2019-01-18T09:21:03.865Z,99.90
2019-01-18T09:22:08.999Z,99.90
2019-01-18T09:23:14.236Z,99.90
2019-01-18T09:24:19.444Z,99.90
2019-01-18T09:25:24.711Z,99.90
2019-01-18T09:26:29.968Z,99.90
2019-01-18T09:27:35.283Z,99.90
2019-01-18T09:28:40.471Z,99.90
2019-01-18T09:29:45.687Z,99.90
2019-01-18T09:30:50.894Z,99.90
2019-01-18T09:31:56.243Z,99.90
2019-01-18T09:33:02.128Z,99.90
2019-01-18T09:34:07.344Z,99.90
2019-01-18T09:35:14.694Z,99.90
2019-01-18T09:36:19.878Z,99.90
2019-01-18T09:37:25.236Z,99.90
2019-01-18T09:38:30.549Z,99.90
2019-01-18T09:39:35.842Z,99.90
2019-01-18T09:40:41.220Z,99.90
2019-01-18T09:41:46.382Z,99.90
2019-01-18T09:42:51.581Z,99.90
2019-01-18T09:43:59.700Z,99.90
2019-01-18T09:45:07.465Z,99.90
2019-01-18T09:46:12.657Z,99.90
2019-01-18T09:47:17.802Z,99.90
2019-01-18T09:48:23.097Z,99.90
2019-01-18T09:49:28.375Z,99.90
2019-01-18T09:50:33.754Z,99.90
2019-01-18T09:51:38.930Z,99.90
2019-01-18T09:52:44.132Z,99.90
2019-01-18T09:55:20.142Z,99.90
2019-01-18T09:56:25.387Z,99.90
2019-01-18T09:57:30.611Z,99.90
2019-01-18T09:58:35.884Z,99.90
2019-01-18T09:59:41.178Z,99.90
2019-01-18T10:00:48.549Z,99.90
2019-01-18T10:01:53.686Z,99.90
2019-01-18T10:03:00.091Z,99.90
2019-01-18T10:04:05.424Z,99.90
2019-01-18T10:05:11.184Z,99.90
2019-01-18T10:06:16.641Z,99.90
2019-01-18T10:07:21.806Z,99.90
2019-01-18T10:08:27.009Z,99.90
2019-01-18T10:09:32.247Z,99.90
2019-01-18T10:10:37.682Z,99.90
2019-01-18T10:11:42.800Z,99.90
2019-01-18T10:12:48.488Z,99.90
2019-01-18T10:13:53.739Z,99.90
2019-01-18T10:14:58.909Z,99.90
2019-01-18T10:16:04.258Z,99.90
2019-01-18T10:17:09.470Z,99.90
2019-01-18T10:18:14.911Z,99.90
2019-01-18T10:19:20.167Z,99.90
2019-01-18T10:20:26.718Z,99.90
2019-01-18T10:21:32.313Z,99.90
2019-01-18T10:22:40.082Z,99.90
2019-01-18T10:23:45.463Z,99.90
2019-01-18T10:24:50.922Z,99.90
2019-01-18T10:25:56.507Z,99.90
2019-01-18T10:27:02.027Z,99.90
2019-01-18T10:28:07.551Z,99.90
2019-01-18T10:29:13.066Z,99.90
2019-01-18T10:30:20.625Z,99.90
2019-01-18T10:31:25.777Z,99.90
2019-01-18T10:32:30.945Z,99.90
2019-01-18T10:33:36.283Z,99.90
2019-01-18T10:34:43.861Z,99.90
2019-01-18T10:35:49.113Z,99.90
2019-01-18T10:38:22.410Z,99.90
2019-01-18T10:38:55.625Z,99.90
2019-01-18T10:41:06.725Z,99.90
2019-01-18T10:41:33.020Z,99.90
2019-01-18T10:42:38.382Z,99.90
2019-01-18T10:43:43.721Z,99.90
2019-01-18T10:44:48.893Z,99.90
2019-01-18T10:45:54.192Z,99.90
2019-01-18T10:46:59.504Z,99.90
2019-01-18T10:48:04.981Z,99.90
2019-01-18T10:49:10.240Z,99.90
2019-01-18T10:50:17.673Z,99.90
2019-01-18T10:51:23.251Z,99.90
2019-01-18T10:52:28.488Z,99.90
2019-01-18T10:53:33.728Z,99.90
2019-01-18T10:54:38.954Z,99.90
2019-01-18T10:55:44.224Z,99.90
2019-01-18T10:56:49.493Z,99.90
2019-01-18T10:57:54.735Z,99.90
2019-01-18T10:58:59.874Z,99.90
2019-01-18T11:00:08.079Z,99.90
2019-01-18T11:01:13.296Z,99.90
2019-01-18T11:02:21.019Z,99.90
2019-01-18T11:03:26.323Z,99.90
2019-01-18T11:04:31.419Z,99.90
2019-01-18T11:05:36.763Z,99.90
2019-01-18T11:06:43.773Z,99.90
2019-01-18T11:07:49.329Z,99.90
2019-01-18T11:08:54.603Z,99.90
2019-01-18T11:09:59.796Z,99.90
2019-01-18T11:11:05.220Z,99.90
2019-01-18T11:12:10.365Z,99.90
2019-01-18T11:13:15.633Z,99.90
2019-01-18T11:14:20.827Z,99.90
2019-01-18T11:15:36.384Z,99.90
2019-01-18T11:16:42.527Z,99.90
2019-01-18T11:17:47.774Z,99.90
2019-01-18T11:18:53.139Z,99.90
2019-01-18T11:19:58.310Z,99.90
2019-01-18T11:21:10.436Z,99.90
2019-01-18T11:22:15.663Z,99.90
2019-01-18T11:23:22.571Z,99.90
2019-01-18T11:24:28.738Z,99.90
2019-01-18T11:25:35.304Z,99.90
2019-01-18T11:26:43.215Z,99.90
2019-01-18T11:27:48.457Z,99.90
2019-01-18T11:28:53.620Z,99.90
2019-01-18T11:30:00.247Z,99.90
2019-01-18T11:31:05.380Z,99.90
2019-01-18T11:32:13.787Z,99.90
2019-01-18T11:33:17.675Z,99.90
2019-01-18T11:34:24.184Z,99.90
2019-01-18T11:35:31.722Z,99.90
2019-01-18T11:36:36.973Z,99.90
2019-01-18T11:37:42.179Z,99.90
2019-01-18T11:38:47.416Z,99.90
2019-01-18T11:39:52.673Z,99.90
2019-01-18T11:40:57.829Z,99.90
2019-01-18T11:42:05.465Z,99.90
2019-01-18T11:43:10.111Z,99.90
2019-01-18T11:44:15.293Z,99.90
2019-01-18T11:45:20.446Z,99.90
2019-01-18T11:46:25.808Z,99.90
2019-01-18T11:47:30.948Z,99.90
2019-01-18T11:48:36.250Z,99.90
2019-01-18T11:49:41.416Z,99.90
2019-01-18T11:50:46.733Z,99.90
2019-01-18T11:51:51.892Z,99.90
2019-01-18T11:52:58.724Z,99.90
2019-01-18T11:54:03.877Z,99.90
2019-01-18T11:55:10.821Z,99.90
2019-01-18T11:56:18.036Z,99.90
2019-01-18T11:57:23.335Z,99.90
2019-01-18T11:58:28.616Z,99.90
2019-01-18T11:59:33.884Z,99.90
2019-01-18T12:00:39.184Z,99.90
2019-01-18T12:01:44.375Z,99.90
2019-01-18T12:02:50.049Z,99.90
2019-01-18T12:03:55.336Z,99.90
2019-01-18T12:05:00.621Z,99.90
2019-01-18T12:06:06.087Z,99.90
2019-01-18T12:07:11.487Z,99.90
2019-01-18T12:08:16.758Z,99.90
2019-01-18T12:09:21.934Z,99.90
2019-01-18T12:10:30.243Z,99.90
2019-01-18T12:11:36.550Z,99.90
2019-01-18T12:12:41.849Z,99.90
2019-01-18T12:13:47.177Z,99.90
2019-01-18T12:14:52.404Z,99.90
2019-01-18T12:15:57.614Z,99.90
2019-01-18T12:17:02.928Z,99.90
2019-01-18T12:18:08.280Z,99.90
2019-01-18T12:19:13.507Z,99.90
2019-01-18T12:20:21.624Z,99.90
2019-01-18T12:21:26.882Z,99.90
2019-01-18T12:22:33.027Z,99.90
2019-01-18T12:23:38.365Z,99.90
2019-01-18T12:24:43.623Z,99.90
2019-01-18T12:25:48.895Z,99.90
2019-01-18T12:26:54.127Z,99.90
2019-01-18T12:27:59.490Z,99.90
2019-01-18T12:29:04.862Z,99.90
2019-01-18T12:30:20.055Z,99.90
2019-01-18T12:31:26.876Z,99.90
2019-01-18T12:32:32.186Z,99.90
2019-01-18T12:33:37.515Z,99.90
2019-01-18T12:34:42.880Z,99.90
2019-01-18T12:35:48.114Z,99.90
2019-01-18T12:36:58.983Z,99.90
2019-01-18T12:38:00.366Z,99.90
2019-01-18T12:39:09.268Z,99.90
2019-01-18T12:40:14.516Z,99.90
2019-01-18T12:41:19.742Z,99.90
2019-01-18T12:42:25.022Z,99.90
2019-01-18T12:43:30.276Z,99.90
2019-01-18T12:44:35.538Z,99.90
2019-01-18T12:45:41.613Z,99.90
2019-01-18T12:46:46.818Z,99.90
2019-01-18T12:47:52.037Z,99.90
2019-01-18T12:48:57.265Z,99.90
2019-01-18T12:50:02.535Z,99.90
2019-01-18T12:51:07.887Z,99.90
2019-01-18T12:52:13.115Z,99.90
2019-01-18T12:53:18.308Z,99.90
2019-01-18T12:54:23.552Z,99.90
2019-01-18T12:55:28.729Z,99.90
2019-01-18T12:56:33.906Z,99.90
2019-01-18T12:57:39.039Z,99.90
2019-01-18T12:58:44.464Z,99.90
2019-01-18T12:59:49.666Z,99.90
2019-01-18T13:00:54.946Z,99.90
2019-01-18T13:02:00.210Z,99.90
2019-01-18T13:03:06.339Z,99.90
2019-01-18T13:04:11.641Z,99.90
2019-01-18T13:05:19.684Z,99.90
2019-01-18T13:06:24.957Z,99.90
2019-01-18T13:07:30.230Z,99.90
2019-01-18T13:08:35.982Z,99.90
2019-01-18T13:09:41.273Z,99.90
2019-01-18T13:10:46.504Z,99.90
2019-01-18T13:11:51.771Z,99.90
2019-01-18T13:12:57.039Z,99.90
2019-01-18T13:14:02.341Z,99.90
2019-01-18T13:15:14.606Z,99.90
2019-01-18T13:16:46.198Z,99.90
2019-01-18T13:17:51.532Z,99.90
2019-01-18T13:18:59.959Z,99.90
2019-01-18T13:20:06.167Z,99.90
2019-01-18T13:21:11.502Z,99.90
2019-01-18T13:22:16.645Z,99.90
2019-01-18T13:23:21.810Z,99.50
2019-01-18T13:24:27.133Z,99.90
2019-01-18T13:25:32.290Z,99.90
2019-01-18T13:26:37.566Z,99.90
2019-01-18T13:27:43.030Z,99.90
2019-01-18T13:28:48.359Z,99.50
2019-01-18T13:29:53.635Z,98.70
2019-01-18T13:30:58.892Z,98.10
2019-01-18T13:32:04.218Z,98.90
2019-01-18T13:33:09.476Z,99.50
2019-01-18T13:34:14.861Z,98.10
2019-01-18T13:35:20.039Z,99.30
2019-01-18T13:36:25.438Z,99.40
2019-01-18T13:37:47.074Z,99.90
2019-01-18T13:38:52.290Z,99.90
2019-01-18T13:39:57.474Z,99.20
2019-01-18T13:41:02.626Z,97.60
2019-01-18T13:42:07.890Z,99.60
2019-01-18T13:43:13.147Z,99.20
2019-01-18T13:44:18.439Z,98.90
2019-01-18T13:45:24.507Z,98.90
2019-01-18T13:46:29.800Z,99.90
2019-01-18T13:47:34.970Z,99.90
2019-01-18T13:48:40.229Z,99.90
2019-01-18T13:49:45.494Z,99.90
2019-01-18T13:50:50.677Z,99.90
2019-01-18T13:51:55.866Z,99.90
2019-01-18T13:53:01.121Z,99.90
2019-01-18T13:54:09.367Z,99.90
2019-01-18T13:55:19.586Z,99.90
2019-01-18T13:56:24.757Z,99.90
2019-01-18T13:57:30.037Z,99.90
2019-01-18T13:58:35.426Z,99.90
2019-01-18T13:59:42.827Z,99.90
2019-01-18T14:00:48.413Z,99.90
2019-01-18T14:01:53.669Z,99.90
2019-01-18T14:02:58.996Z,99.90
2019-01-18T14:04:04.348Z,99.90
2019-01-18T14:05:10.525Z,99.90
2019-01-18T14:06:15.705Z,99.90
2019-01-18T14:07:21.038Z,99.90
2019-01-18T14:08:28.755Z,99.90
2019-01-18T14:09:33.921Z,99.90
2019-01-18T14:10:39.146Z,99.90
2019-01-18T14:11:44.307Z,99.90
2019-01-18T14:12:49.776Z,99.90
2019-01-18T14:13:54.975Z,99.90
2019-01-18T14:15:00.315Z,99.90